Time;durP1;ratioP1;P1;durP2;ratioP2;P2;SDS_P1;SDS_P2;PMS_P1;PMS_P2;Temp;Humidity;BMP_temperature;BMP_pressure;BME280_temperature;BME280_humidity;BME280_pressure;Samples;Min_cycle;Max_cycle;Signal;HPM_P1;HPM_P2
2022/09/30 00:01:42;;;;;;;7.68;3.65;;;;;;;13.41;77.36;100407.06;7386874;19;20037;-68
2022/09/30 00:04:13;;;;;;;9.45;4.20;;;;;;;13.39;77.66;100406.41;7384287;19;20391;-68
2022/09/30 00:06:40;;;;;;;7.97;4.63;;;;;;;13.35;77.86;100405.97;7387317;19;20375;-68
2022/09/30 00:09:07;;;;;;;10.80;3.55;;;;;;;13.31;77.96;100407.28;7390502;19;20007;-67
2022/09/30 00:11:35;;;;;;;8.07;3.60;;;;;;;13.26;78.04;100420.22;7390013;19;20021;-68
2022/09/30 00:14:01;;;;;;;6.85;3.53;;;;;;;13.18;78.19;100430.88;7388932;19;20033;-68
2022/09/30 00:16:33;;;;;;;9.48;3.58;;;;;;;13.16;78.83;100427.59;7389093;19;20014;-69
2022/09/30 00:19:03;;;;;;;10.55;3.65;;;;;;;13.12;78.78;100434.25;7391646;19;20022;-69
2022/09/30 00:21:32;;;;;;;10.93;4.32;;;;;;;13.11;79.09;100438.69;7389755;19;20042;-67
2022/09/30 00:24:00;;;;;;;5.93;3.63;;;;;;;13.11;78.70;100438.69;7389342;19;20018;-67
2022/09/30 00:26:27;;;;;;;8.70;4.07;;;;;;;13.10;78.92;100431.75;7392261;19;20014;-69
2022/09/30 00:28:57;;;;;;;8.38;3.22;;;;;;;13.07;78.71;100426.81;7388557;19;20033;-68
2022/09/30 00:31:27;;;;;;;9.55;3.65;;;;;;;13.07;78.77;100440.03;7392714;19;20351;-68
2022/09/30 00:34:06;;;;;;;8.43;3.45;;;;;;;13.01;79.06;100442.56;7388542;19;20010;-68
2022/09/30 00:36:36;;;;;;;6.47;3.38;;;;;;;12.99;79.44;100449.84;7393993;19;20006;-69
2022/09/30 00:39:04;;;;;;;5.13;3.22;;;;;;;12.98;79.59;100442.91;7389649;19;20014;-70
2022/09/30 00:41:31;;;;;;;7.50;3.45;;;;;;;12.97;79.66;100454.47;7391478;19;20010;-68
2022/09/30 00:43:59;;;;;;;8.32;4.05;;;;;;;12.94;79.24;100454.84;7390307;19;20017;-68
2022/09/30 00:46:37;;;;;;;8.20;3.90;;;;;;;12.94;79.38;100457.47;7392766;19;20014;-69
2022/09/30 00:49:19;;;;;;;7.13;3.47;;;;;;;12.91;79.61;100452.53;7388627;19;20010;-68
2022/09/30 00:51:51;;;;;;;7.90;3.75;;;;;;;12.88;79.29;100450.25;7390747;19;20018;-69
2022/09/30 00:54:25;;;;;;;7.83;3.70;;;;;;;12.84;79.85;100463.84;7391264;19;20030;-68
2022/09/30 00:56:57;;;;;;;9.10;4.15;;;;;;;12.85;80.17;100467.28;7392544;19;20384;-68
2022/09/30 00:59:28;;;;;;;8.85;3.50;;;;;;;12.87;80.37;100470.56;7389095;19;20042;-68
2022/09/30 01:01:55;;;;;;;7.50;3.85;;;;;;;12.85;79.86;100478.66;7391232;19;20013;-68
2022/09/30 01:04:24;;;;;;;9.20;4.25;;;;;;;12.84;80.02;100465.66;7387596;19;20017;-67
2022/09/30 01:06:51;;;;;;;10.38;3.38;;;;;;;12.84;80.19;100470.94;7388610;19;20018;-69
2022/09/30 01:09:19;;;;;;;8.50;3.72;;;;;;;12.79;80.11;100471.47;7386786;19;20089;-69
2022/09/30 01:11:47;;;;;;;9.05;3.70;;;;;;;12.78;80.47;100475.09;7388711;19;20018;-68
2022/09/30 01:14:18;;;;;;;10.00;4.43;;;;;;;12.77;80.28;100488.47;7388826;19;20014;-67
2022/09/30 01:17:09;;;;;;;10.38;4.05;;;;;;;12.72;80.84;100477.59;7388318;19;20014;-67
2022/09/30 01:20:14;;;;;;;6.75;3.47;;;;;;;12.70;80.93;100479.59;7386828;19;20046;-68
2022/09/30 01:23:10;;;;;;;9.65;4.15;;;;;;;12.66;80.89;100478.28;7388702;19;20017;-67
2022/09/30 01:26:28;;;;;;;8.75;4.05;;;;;;;12.61;81.28;100481.47;7385223;19;20014;-67
2022/09/30 01:29:07;;;;;;;6.82;3.75;;;;;;;12.62;81.40;100477.00;7389024;19;20010;-69
2022/09/30 01:31:57;;;;;;;7.45;3.72;;;;;;;12.64;81.65;100482.94;7389126;19;20019;-67
2022/09/30 01:34:44;;;;;;;8.02;4.00;;;;;;;12.64;81.35;100498.78;7387038;19;20550;-68
2022/09/30 01:37:31;;;;;;;8.38;4.15;;;;;;;12.61;81.78;100483.28;7389807;19;20007;-68
2022/09/30 01:40:11;;;;;;;9.85;4.45;;;;;;;12.63;82.18;100482.13;7388200;19;20010;-69
2022/09/30 01:42:50;;;;;;;8.30;3.50;;;;;;;12.65;82.33;100474.84;7390157;19;20032;-72
2022/09/30 01:45:20;;;;;;;8.30;4.03;;;;;;;12.68;81.97;100473.69;7388160;19;20015;-67
2022/09/30 01:47:59;;;;;;;11.20;4.10;;;;;;;12.66;81.73;100473.00;7389639;19;20407;-68
2022/09/30 01:50:45;;;;;;;11.77;4.50;;;;;;;12.65;82.20;100474.84;7389141;19;20045;-68
2022/09/30 01:53:24;;;;;;;12.13;4.88;;;;;;;12.67;82.36;100479.94;7387311;19;20023;-68
2022/09/30 01:56:04;;;;;;;8.52;3.90;;;;;;;12.70;82.53;100480.41;7384935;19;20023;-69
2022/09/30 01:58:36;;;;;;;7.10;3.58;;;;;;;12.72;83.04;100485.53;7387355;19;20026;-68
2022/09/30 02:01:13;;;;;;;9.85;4.63;;;;;;;12.73;82.45;100490.63;7389172;19;20037;-69
2022/09/30 02:04:05;;;;;;;8.95;5.30;;;;;;;12.75;82.57;100480.69;7389535;19;20019;-67
2022/09/30 02:06:39;;;;;;;7.50;4.22;;;;;;;12.77;82.58;100472.63;7386818;19;20053;-67
2022/09/30 02:09:13;;;;;;;8.77;3.90;;;;;;;12.76;82.76;100482.34;7386732;19;20026;-68
2022/09/30 02:11:41;;;;;;;8.00;3.75;;;;;;;12.76;82.64;100471.78;7384972;19;20778;-68
2022/09/30 02:14:15;;;;;;;7.95;3.58;;;;;;;12.75;82.20;100478.06;7388618;19;20021;-68
2022/09/30 02:16:52;;;;;;;8.07;3.47;;;;;;;12.75;82.38;100485.97;7390806;19;20527;-69
2022/09/30 02:19:42;;;;;;;6.13;3.67;;;;;;;12.73;82.78;100485.34;7386737;19;20050;-68
2022/09/30 02:22:15;;;;;;;8.13;4.20;;;;;;;12.74;82.91;100492.28;7387862;19;20038;-68
2022/09/30 02:24:44;;;;;;;9.00;3.90;;;;;;;12.74;83.18;100488.81;7386591;19;20031;-68
2022/09/30 02:27:26;;;;;;;7.05;3.65;;;;;;;12.78;83.14;100495.38;7387550;19;20015;-68
2022/09/30 02:29:56;;;;;;;7.55;3.65;;;;;;;12.78;83.06;100498.84;7387831;19;20045;-68
2022/09/30 02:32:32;;;;;;;8.43;3.75;;;;;;;12.79;83.07;100489.13;7387083;19;20014;-67
2022/09/30 02:35:04;;;;;;;6.55;3.20;;;;;;;12.78;83.15;100488.28;7388904;19;20324;-68
2022/09/30 02:37:38;;;;;;;6.90;4.07;;;;;;;12.77;83.35;100489.28;7388765;19;20368;-69
2022/09/30 02:40:29;;;;;;;6.35;3.03;;;;;;;12.80;83.51;100485.44;7388333;19;20046;-68
2022/09/30 02:42:56;;;;;;;6.97;3.20;;;;;;;12.80;83.43;100490.72;7388632;19;20014;-68
2022/09/30 02:45:23;;;;;;;7.55;3.63;;;;;;;12.78;83.45;100485.66;7387189;19;20644;-67
2022/09/30 02:48:09;;;;;;;10.65;3.38;;;;;;;12.84;83.77;100497.34;7388458;19;20015;-68
2022/09/30 02:50:49;;;;;;;9.20;4.05;;;;;;;12.82;83.97;100488.75;7388825;19;20470;-67
2022/09/30 02:53:18;;;;;;;6.85;3.20;;;;;;;12.80;84.13;100488.91;7386650;19;20011;-68
2022/09/30 02:56:14;;;;;;;5.20;3.17;;;;;;;12.82;84.25;100483.47;7386834;19;20019;-68
2022/09/30 02:58:42;;;;;;;7.00;3.40;;;;;;;12.80;84.39;100483.63;7385799;19;20037;-68
2022/09/30 03:01:12;;;;;;;7.38;3.60;;;;;;;12.81;84.67;100480.00;7385149;19;20038;-69
2022/09/30 03:03:50;;;;;;;7.53;3.83;;;;;;;12.84;84.72;100476.22;7386790;19;20015;-68
2022/09/30 03:06:18;;;;;;;8.60;3.60;;;;;;;12.88;84.78;100469.56;7386295;19;20492;-68
2022/09/30 03:08:45;;;;;;;10.02;3.95;;;;;;;12.88;84.40;100461.66;7386245;19;20035;-68
2022/09/30 03:11:18;;;;;;;5.72;3.28;;;;;;;12.85;84.54;100468.09;7388536;19;20021;-67
2022/09/30 03:14:03;;;;;;;;;;;;;;;12.88;84.49;100468.75;7387736;19;20058;-68
2022/09/30 03:16:49;;;;;;;6.68;3.58;;;;;;;12.86;84.93;100476.84;7385005;19;19926;-68
2022/09/30 03:19:28;;;;;;;8.25;3.40;;;;;;;12.87;85.31;100475.84;7380317;19;20014;-68
2022/09/30 03:22:04;;;;;;;8.00;3.25;;;;;;;12.85;85.14;100478.66;7388408;19;20133;-67
2022/09/30 03:24:39;;;;;;;7.57;3.08;;;;;;;12.83;85.21;100483.31;7378959;19;20022;-68
2022/09/30 03:27:21;;;;;;;9.63;3.45;;;;;;;12.83;85.60;100487.75;7385142;19;20041;-68
2022/09/30 03:30:00;;;;;;;9.45;3.13;;;;;;;12.82;85.83;100480.84;7385386;19;20037;-68
2022/09/30 03:33:05;;;;;;;8.48;3.85;;;;;;;12.80;85.64;100475.72;7384634;19;20019;-69
2022/09/30 03:35:31;;;;;;;6.75;3.20;;;;;;;12.82;86.15;100479.00;7383313;19;20010;-68
2022/09/30 03:38:16;;;;;;;4.35;3.00;;;;;;;12.82;86.13;100494.84;7385568;19;20029;-70
2022/09/30 03:41:12;;;;;;;9.30;3.53;;;;;;;12.81;86.13;100502.94;7384223;19;20018;-68
2022/09/30 03:43:45;;;;;;;7.32;3.47;;;;;;;12.83;86.04;100500.97;7383831;19;20010;-68
2022/09/30 03:46:30;;;;;;;6.78;3.60;;;;;;;12.82;86.13;100505.41;7383873;19;20330;-68
2022/09/30 03:49:01;;;;;;;9.82;4.18;;;;;;;12.84;85.91;100505.25;7382487;19;20409;-68
2022/09/30 03:51:29;;;;;;;9.10;3.95;;;;;;;12.86;85.94;100490.03;7384394;19;20029;-69
2022/09/30 03:53:57;;;;;;;9.63;3.50;;;;;;;12.88;85.43;100495.16;7384268;19;20050;-68
2022/09/30 03:56:30;;;;;;;9.90;3.25;;;;;;;12.89;85.26;100494.16;7380890;19;20019;-67
2022/09/30 03:58:59;;;;;;;9.10;3.17;;;;;;;12.92;85.38;100489.34;7384253;19;20038;-68
2022/09/30 04:01:26;;;;;;;10.18;3.67;;;;;;;12.93;85.09;100487.53;7385151;19;20014;-67
2022/09/30 04:03:53;;;;;;;9.35;4.43;;;;;;;12.95;85.20;100489.00;7386157;19;20015;-68
2022/09/30 04:06:23;;;;;;;8.13;3.72;;;;;;;13.00;84.99;100493.75;7384343;19;20021;-67
2022/09/30 04:08:52;;;;;;;6.72;3.13;;;;;;;13.02;84.72;100494.38;7382908;19;20018;-67
2022/09/30 04:11:19;;;;;;;9.13;4.57;;;;;;;13.04;84.58;100490.59;7386119;19;20014;-68
2022/09/30 04:13:46;;;;;;;8.35;3.70;;;;;;;13.03;84.50;100491.56;7384323;19;20015;-68
2022/09/30 04:16:13;;;;;;;9.43;5.18;;;;;;;13.02;84.32;100489.94;7386378;19;20010;-68
2022/09/30 04:18:41;;;;;;;7.90;3.80;;;;;;;13.04;84.92;100490.59;7385061;19;20018;-68
2022/09/30 04:21:10;;;;;;;8.15;3.17;;;;;;;13.04;84.53;100487.13;7385662;19;20472;-67
2022/09/30 04:23:39;;;;;;;10.13;3.15;;;;;;;13.04;84.14;100487.13;7384954;19;20474;-67
2022/09/30 04:26:09;;;;;;;6.90;3.42;;;;;;;13.04;83.99;100489.75;7386360;19;20983;-68
2022/09/30 04:28:36;;;;;;;6.72;3.47;;;;;;;13.05;84.11;100475.56;7382496;19;20042;-68
2022/09/30 04:31:05;;;;;;;7.80;3.10;;;;;;;13.02;83.67;100478.53;7384465;19;20014;-68
2022/09/30 04:33:32;;;;;;;6.63;3.65;;;;;;;12.99;83.74;100479.72;7382159;19;20007;-68
2022/09/30 04:36:00;;;;;;;10.80;3.63;;;;;;;12.98;83.35;100487.81;7385864;19;20570;-67
2022/09/30 04:38:28;;;;;;;7.03;3.80;;;;;;;12.95;83.13;100480.25;7383152;19;20023;-69
2022/09/30 04:40:55;;;;;;;7.63;3.47;;;;;;;12.92;82.80;100483.25;7385597;19;20022;-69
2022/09/30 04:43:23;;;;;;;7.72;2.90;;;;;;;12.88;83.25;100487.22;7383954;19;20011;-68
2022/09/30 04:45:51;;;;;;;8.45;3.78;;;;;;;12.86;83.28;100485.59;7382460;19;20014;-68
2022/09/30 04:48:21;;;;;;;8.70;3.63;;;;;;;12.88;84.83;100492.50;7384522;19;20693;-68
2022/09/30 04:50:51;;;;;;;8.18;3.55;;;;;;;12.89;84.81;100495.00;7383922;19;20042;-69
2022/09/30 04:53:18;;;;;;;9.35;3.90;;;;;;;12.90;84.28;100488.69;7384525;19;20293;-67
2022/09/30 04:55:45;;;;;;;9.30;3.55;;;;;;;12.91;84.29;100497.44;7388579;19;20018;-68
2022/09/30 04:58:12;;;;;;;7.82;3.95;;;;;;;12.90;84.20;100496.59;7389551;19;20018;-68
2022/09/30 05:00:39;;;;;;;5.88;3.60;;;;;;;12.90;84.27;100498.44;7389784;19;20038;-69
2022/09/30 05:03:06;;;;;;;9.40;4.07;;;;;;;12.92;84.97;100501.72;7389706;19;20010;-68
2022/09/30 05:05:33;;;;;;;7.60;3.35;;;;;;;12.93;84.84;100511.28;7390255;19;20018;-68
2022/09/30 05:08:04;;;;;;;8.88;3.85;;;;;;;12.96;84.58;100503.00;7389376;19;20010;-69
2022/09/30 05:10:31;;;;;;;9.25;3.78;;;;;;;12.95;84.56;100502.22;7390029;19;20086;-67
2022/09/30 05:12:58;;;;;;;8.73;3.88;;;;;;;12.98;84.40;100499.22;7386830;19;20037;-64
2022/09/30 05:15:26;;;;;;;7.50;3.25;;;;;;;13.00;84.73;100496.41;7389497;19;20022;-64
2022/09/30 05:17:53;;;;;;;7.05;3.10;;;;;;;13.01;84.28;100503.28;7389768;19;20368;-64
2022/09/30 05:20:20;;;;;;;6.80;3.92;;;;;;;13.04;84.00;100508.25;7390372;19;20018;-64
2022/09/30 05:22:53;;;;;;;6.70;3.38;;;;;;;13.06;83.49;100503.59;7390898;19;20006;-64
2022/09/30 05:25:19;;;;;;;8.48;3.42;;;;;;;13.05;83.00;100504.63;7388933;19;20042;-65
2022/09/30 05:27:49;;;;;;;7.60;3.47;;;;;;;13.02;82.07;100492.56;7391121;19;20025;-65
2022/09/30 05:30:16;;;;;;;8.68;3.42;;;;;;;13.01;81.87;100493.56;7390406;19;20382;-66
2022/09/30 05:32:43;;;;;;;9.68;4.35;;;;;;;12.98;81.89;100498.38;7386253;19;20020;-66
2022/09/30 05:35:11;;;;;;;6.65;3.55;;;;;;;12.95;82.04;100496.94;7388200;19;20038;-65
2022/09/30 05:37:37;;;;;;;7.82;3.35;;;;;;;12.94;81.67;100495.28;7390946;19;20003;-66
2022/09/30 05:40:06;;;;;;;6.75;3.25;;;;;;;12.92;81.52;100494.63;7387578;19;20014;-66
2022/09/30 05:42:34;;;;;;;7.15;3.78;;;;;;;12.89;81.80;100497.63;7388667;19;20018;-66
2022/09/30 05:45:03;;;;;;;10.23;3.53;;;;;;;12.86;81.99;100490.88;7389779;19;20018;-66
2022/09/30 05:47:30;;;;;;;15.55;5.93;;;;;;;12.83;82.19;100496.50;7391290;19;20034;-66
2022/09/30 05:49:57;;;;;;;12.45;4.85;;;;;;;12.82;82.73;100492.22;7388288;19;20021;-66
2022/09/30 05:52:24;;;;;;;10.10;4.20;;;;;;;12.75;82.41;100487.81;7388513;19;20015;-66
2022/09/30 05:54:51;;;;;;;11.93;4.40;;;;;;;12.75;82.54;100495.72;7384933;19;20014;-66
2022/09/30 05:57:18;;;;;;;13.30;5.07;;;;;;;12.68;82.94;100497.44;7388034;19;20019;-66
2022/09/30 05:59:46;;;;;;;15.45;5.03;;;;;;;12.65;83.29;100487.22;7390229;19;20022;-67
2022/09/30 06:02:12;;;;;;;14.63;7.00;;;;;;;12.63;83.71;100497.97;7390364;19;20003;-67
2022/09/30 06:04:39;;;;;;;11.50;4.85;;;;;;;12.65;84.43;100489.84;7387507;19;20070;-67
2022/09/30 06:07:06;;;;;;;14.63;5.10;;;;;;;12.65;83.96;100500.41;7388119;19;20018;-65
2022/09/30 06:09:36;;;;;;;14.07;5.47;;;;;;;12.63;83.57;100494.50;7388001;19;20093;-66
2022/09/30 06:12:05;;;;;;;18.02;5.78;;;;;;;12.62;84.22;100498.13;7389674;19;20025;-65
2022/09/30 06:14:32;;;;;;;14.57;5.30;;;;;;;12.60;84.24;100500.09;7388785;19;20030;-66
2022/09/30 06:17:01;;;;;;;22.17;5.60;;;;;;;12.59;84.65;100507.22;7390057;19;20010;-66
2022/09/30 06:19:29;;;;;;;23.13;6.45;;;;;;;12.56;85.67;100496.19;7388443;19;20570;-66
2022/09/30 06:21:56;;;;;;;17.48;6.47;;;;;;;12.49;85.53;100498.72;7389944;19;20029;-69
2022/09/30 06:24:24;;;;;;;20.00;6.18;;;;;;;12.46;85.54;100488.47;7385574;19;20014;-66
2022/09/30 06:26:51;;;;;;;19.98;7.07;;;;;;;12.40;85.96;100489.16;7389658;19;20030;-64
2022/09/30 06:29:18;;;;;;;25.70;6.53;;;;;;;12.36;86.58;100491.34;7386018;19;20385;-65
2022/09/30 06:31:45;;;;;;;24.88;7.47;;;;;;;12.34;86.60;100495.94;7388682;19;20014;-65
2022/09/30 06:34:12;;;;;;;21.30;7.47;;;;;;;12.32;86.69;100491.84;7385663;19;20066;-65
2022/09/30 06:36:39;;;;;;;18.75;6.72;;;;;;;12.33;86.94;100488.22;7387371;19;20018;-64
2022/09/30 06:39:06;;;;;;;29.13;8.30;;;;;;;12.31;87.25;100484.94;7385577;19;20372;-64
2022/09/30 06:41:41;;;;;;;25.27;8.45;;;;;;;12.31;87.70;100474.38;7387281;19;20014;-64
2022/09/30 06:44:08;;;;;;;21.92;7.88;;;;;;;12.28;88.22;100467.66;7385552;19;20710;-65
2022/09/30 06:46:35;;;;;;;22.45;7.38;;;;;;;12.26;88.86;100474.91;7388719;19;20014;-64
2022/09/30 06:49:16;;;;;;;27.60;10.77;;;;;;;12.29;89.36;100468.47;7384331;19;20007;-65
2022/09/30 06:51:43;;;;;;;16.60;5.63;;;;;;;12.26;89.80;100471.44;7387496;19;20539;-65
2022/09/30 06:54:10;;;;;;;16.35;5.20;;;;;;;12.23;89.00;100469.16;7381963;19;20025;-65
2022/09/30 06:56:37;;;;;;;18.17;5.50;;;;;;;12.18;89.23;100463.56;7387264;19;20019;-65
2022/09/30 06:59:04;;;;;;;18.40;6.30;;;;;;;12.14;89.56;100455.16;7386180;19;20014;-65
2022/09/30 07:01:31;;;;;;;17.80;5.88;;;;;;;12.10;89.49;100456.50;7386987;19;20010;-69
2022/09/30 07:03:58;;;;;;;44.35;10.45;;;;;;;12.10;89.97;100459.16;7386245;19;20505;-66
2022/09/30 07:06:25;;;;;;;21.50;6.88;;;;;;;12.09;90.57;100454.06;7388155;19;20692;-65
2022/09/30 07:08:53;;;;;;;20.08;6.78;;;;;;;12.11;90.82;100452.88;7385295;19;20014;-66
2022/09/30 07:11:19;;;;;;;19.00;6.38;;;;;;;12.14;90.77;100446.47;7387793;19;20014;-67
2022/09/30 07:13:48;;;;;;;19.10;6.43;;;;;;;12.16;90.56;100437.38;7386233;19;20014;-66
2022/09/30 07:16:17;;;;;;;20.10;6.50;;;;;;;12.16;90.63;100441.81;7386965;19;20035;-65
2022/09/30 07:18:44;;;;;;;45.33;8.23;;;;;;;12.16;90.71;100447.91;7384472;19;20030;-64
2022/09/30 07:21:14;;;;;;;21.65;7.65;;;;;;;12.14;91.22;100449.09;7385568;19;20055;-69
2022/09/30 07:23:49;;;;;;;20.95;6.72;;;;;;;12.16;91.18;100440.00;7382986;19;20032;-66
2022/09/30 07:26:19;;;;;;;20.65;6.32;;;;;;;12.16;91.08;100432.09;7387449;19;20014;-66
2022/09/30 07:28:47;;;;;;;21.90;7.00;;;;;;;12.14;91.06;100441.97;7384113;19;20007;-66
2022/09/30 07:31:22;;;;;;;33.78;8.23;;;;;;;12.13;90.84;100445.63;7386855;19;20014;-66
2022/09/30 07:34:01;;;;;;;20.58;7.50;;;;;;;12.14;91.46;100438.53;7384695;19;20017;-65
2022/09/30 07:36:31;;;;;;;19.35;6.45;;;;;;;12.17;91.56;100441.66;7386005;19;20014;-66
2022/09/30 07:39:04;;;;;;;20.50;8.20;;;;;;;12.19;91.38;100441.47;7382153;19;20546;-66
2022/09/30 07:41:34;;;;;;;16.00;6.53;;;;;;;12.20;91.24;100438.66;7386789;19;20029;-66
2022/09/30 07:44:01;;;;;;;15.48;5.85;;;;;;;12.21;91.29;100435.03;7385438;19;20014;-65
2022/09/30 07:46:30;;;;;;;19.67;7.35;;;;;;;12.24;91.19;100447.06;7386698;19;20007;-65
2022/09/30 07:49:01;;;;;;;20.10;6.85;;;;;;;12.28;91.86;100443.09;7385386;19;20485;-67
2022/09/30 07:51:33;;;;;;;21.55;6.95;;;;;;;12.34;91.79;100442.41;7384217;19;20010;-67
2022/09/30 07:54:06;;;;;;;21.40;8.18;;;;;;;12.53;94.67;100444.56;7383755;19;20033;-66
2022/09/30 07:56:37;;;;;;;21.50;7.10;;;;;;;12.62;94.55;100435.59;7386517;19;20781;-66
2022/09/30 07:59:26;;;;;;;18.63;7.78;;;;;;;12.56;92.08;100438.13;7383463;19;20018;-66
2022/09/30 08:01:53;;;;;;;26.88;10.52;;;;;;;12.51;90.65;100440.44;7385473;19;20042;-66
2022/09/30 08:04:21;;;;;;;20.40;7.22;;;;;;;12.48;90.52;100432.91;7383950;19;20474;-66
2022/09/30 08:06:51;;;;;;;18.30;6.93;;;;;;;12.51;90.23;100433.38;7383880;19;20045;-67
2022/09/30 08:09:20;;;;;;;20.40;7.28;;;;;;;12.48;89.64;100435.53;7381247;19;20029;-67
2022/09/30 08:11:48;;;;;;;17.27;7.93;;;;;;;12.48;90.12;100427.63;7386303;19;20018;-66
2022/09/30 08:14:17;;;;;;;20.45;8.00;;;;;;;12.48;90.26;100430.25;7381596;19;20368;-66
2022/09/30 08:16:44;;;;;;;20.30;8.55;;;;;;;12.52;90.59;100429.72;7385528;19;20010;-65
2022/09/30 08:19:18;;;;;;;20.95;7.90;;;;;;;12.57;90.58;100435.31;7381716;19;20118;-66
2022/09/30 08:21:46;;;;;;;25.48;11.48;;;;;;;12.65;91.17;100437.88;7385800;19;20050;-66
2022/09/30 08:24:13;;;;;;;20.05;10.15;;;;;;;12.72;90.85;100438.00;7384408;19;20014;-66
2022/09/30 08:26:41;;;;;;;19.23;8.50;;;;;;;12.74;89.39;100439.50;7385152;19;20372;-67
2022/09/30 08:29:10;;;;;;;20.63;8.82;;;;;;;12.80;89.26;100436.13;7387748;19;20012;-67
2022/09/30 08:31:45;;;;;;;21.55;8.93;;;;;;;12.83;88.95;100427.84;7391690;19;20452;-67
2022/09/30 08:34:12;;;;;;;23.05;10.00;;;;;;;12.86;88.72;100424.03;7388564;19;20014;-67
2022/09/30 08:36:39;;;;;;;21.80;9.80;;;;;;;12.91;88.85;100416.41;7393227;19;20681;-67
2022/09/30 08:39:06;;;;;;;19.58;8.75;;;;;;;12.99;88.30;100412.88;7385123;19;20022;-67
2022/09/30 08:42:10;;;;;;;20.48;9.00;;;;;;;13.05;88.10;100417.44;7391935;19;20018;-66
2022/09/30 08:45:06;;;;;;;;;;;;;;;13.18;88.64;100410.56;7387299;19;20106;-66
2022/09/30 08:47:46;;;;;;;20.65;9.40;;;;;;;13.24;87.93;100409.88;7390947;19;19911;-66
2022/09/30 08:50:28;;;;;;;20.15;8.98;;;;;;;13.31;87.69;100420.50;7392586;19;20018;-66
2022/09/30 08:53:02;;;;;;;19.48;9.10;;;;;;;13.39;87.38;100419.63;7390604;19;20042;-68
2022/09/30 08:55:44;;;;;;;23.30;11.10;;;;;;;13.43;87.50;100421.72;7389499;19;20018;-67
2022/09/30 08:58:24;;;;;;;18.08;9.38;;;;;;;13.51;87.86;100411.03;7391504;19;20042;-66
2022/09/30 09:01:29;;;;;;;21.20;9.38;;;;;;;13.60;87.19;100417.09;7390661;19;20018;-66
2022/09/30 09:03:58;;;;;;;19.90;8.95;;;;;;;13.63;86.51;100420.16;7388488;19;20011;-66
2022/09/30 09:07:06;;;;;;;21.50;9.18;;;;;;;13.69;86.25;100418.63;7392672;19;20014;-67
2022/09/30 09:10:01;;;;;;;20.58;10.43;;;;;;;13.72;86.55;100405.03;7390067;19;20067;-67
2022/09/30 09:12:51;;;;;;;19.83;10.35;;;;;;;13.74;86.33;100408.31;7390677;19;20058;-68
2022/09/30 09:15:36;;;;;;;25.15;13.13;;;;;;;13.78;85.94;100401.66;7387661;19;20022;-66
2022/09/30 09:18:34;;;;;;;22.20;10.15;;;;;;;13.83;85.60;100398.44;7390469;19;20014;-66
2022/09/30 09:21:18;;;;;;;22.55;12.45;;;;;;;13.88;86.19;100399.53;7388111;19;20051;-66
2022/09/30 09:23:47;;;;;;;18.20;9.25;;;;;;;13.96;86.18;100402.09;7388501;19;20470;-66
2022/09/30 09:26:15;;;;;;;16.70;9.10;;;;;;;14.04;86.05;100401.97;7392048;19;20140;-66
2022/09/30 09:28:59;;;;;;;18.20;8.57;;;;;;;14.12;85.44;100390.44;7342948;19;20022;-66
2022/09/30 09:31:26;;;;;;;16.58;9.48;;;;;;;14.16;85.11;100391.75;7386004;19;20046;-65
2022/09/30 09:33:59;;;;;;;18.85;9.48;;;;;;;14.20;85.01;100392.19;7383410;19;20102;-65
2022/09/30 09:37:01;;;;;;;18.83;9.32;;;;;;;14.27;85.18;100380.69;7389206;19;20022;-67
2022/09/30 09:39:50;;;;;;;19.45;9.00;;;;;;;14.32;84.69;100378.28;7383556;19;20697;-66
2022/09/30 09:42:37;;;;;;;17.92;8.43;;;;;;;14.35;84.40;100383.19;7387845;19;20981;-67
2022/09/30 09:45:17;;;;;;;18.33;8.32;;;;;;;14.39;84.52;100389.78;7386458;19;20332;-66
2022/09/30 09:47:52;;;;;;;18.42;9.27;;;;;;;14.45;84.54;100394.31;7386817;19;20014;-67
2022/09/30 09:50:26;;;;;;;16.88;8.73;;;;;;;14.53;84.56;100396.81;7386805;19;20377;-66
2022/09/30 09:53:15;;;;;;;14.93;7.90;;;;;;;14.58;83.95;100398.91;7387968;19;20763;-66
2022/09/30 09:55:42;;;;;;;11.95;6.85;;;;;;;14.65;84.08;100393.69;7370717;19;20026;-65
2022/09/30 09:58:13;;;;;;;18.70;7.05;;;;;;;14.73;83.72;100396.22;7388675;19;20014;-67
2022/09/30 10:03:27;;;;;;;13.27;7.55;;;;;;;14.89;83.69;100387.97;7385809;19;20485;-69
2022/09/30 10:06:05;;;;;;;14.93;7.80;;;;;;;14.96;83.33;100373.78;7385566;19;20361;-66
2022/09/30 10:08:35;;;;;;;11.77;6.78;;;;;;;15.01;82.51;100367.06;7388001;19;20010;-66
2022/09/30 10:11:22;;;;;;;13.07;6.78;;;;;;;15.08;82.32;100362.66;7387078;19;20026;-66
2022/09/30 10:13:51;;;;;;;12.07;5.85;;;;;;;15.14;81.91;100367.16;7384990;19;20046;-66
2022/09/30 10:16:36;;;;;;;14.52;8.10;;;;;;;15.17;82.22;100354.34;7387789;19;20017;-66
2022/09/30 10:19:21;;;;;;;12.75;7.03;;;;;;;15.23;82.00;100353.59;7385006;19;20019;-66
2022/09/30 10:21:47;;;;;;;12.50;6.63;;;;;;;15.27;81.60;100346.88;7382025;19;20330;-68
2022/09/30 10:24:26;;;;;;;11.63;6.30;;;;;;;15.33;81.79;100339.97;7370432;19;20014;-67
2022/09/30 10:26:59;;;;;;;15.73;6.88;;;;;;;15.35;81.13;100341.41;7376910;19;20712;-67
2022/09/30 10:29:37;;;;;;;11.70;6.72;;;;;;;15.39;81.49;100332.03;7378678;19;20078;-66
2022/09/30 10:32:08;;;;;;;13.10;5.80;;;;;;;15.45;81.35;100324.31;7381778;19;20041;-67
2022/09/30 10:34:40;;;;;;;11.32;4.95;;;;;;;15.51;80.93;100324.38;7381096;19;20014;-66
2022/09/30 10:37:21;;;;;;;8.25;4.40;;;;;;;15.59;80.34;100331.38;7383493;19;20340;-67
2022/09/30 10:40:00;;;;;;;9.85;4.28;;;;;;;15.65;79.41;100319.94;7377665;19;20322;-66
2022/09/30 10:42:31;;;;;;;7.78;3.83;;;;;;;15.74;79.06;100316.94;7382745;19;20022;-66
2022/09/30 10:45:15;;;;;;;7.97;3.33;;;;;;;15.81;78.97;100311.63;7379407;19;20613;-66
2022/09/30 10:47:45;;;;;;;6.80;3.05;;;;;;;15.85;77.93;100315.53;7382254;19;20051;-66
2022/09/30 10:50:16;;;;;;;6.55;3.25;;;;;;;15.94;77.64;100309.03;7381664;19;20014;-68
2022/09/30 10:53:03;;;;;;;7.35;3.15;;;;;;;16.00;77.34;100302.91;7380912;19;20398;-69
2022/09/30 10:55:33;;;;;;;6.65;3.17;;;;;;;16.04;77.04;100301.50;7378084;19;20465;-69
2022/09/30 10:58:27;;;;;;;6.30;2.42;;;;;;;16.10;77.32;100303.34;7378859;19;20021;-67
2022/09/30 11:01:18;;;;;;;7.22;2.58;;;;;;;16.16;77.23;100294.56;7379411;19;20446;-70
2022/09/30 11:04:00;;;;;;;5.20;2.40;;;;;;;16.24;76.81;100283.78;7380351;19;20018;-70
2022/09/30 11:06:31;;;;;;;3.40;1.85;;;;;;;16.28;75.00;100281.53;7381493;19;20325;-69
2022/09/30 11:09:33;;;;;;;6.30;2.38;;;;;;;16.35;75.72;100273.56;7378822;19;20039;-69
2022/09/30 11:12:31;;;;;;;5.00;1.80;;;;;;;16.41;74.35;100268.22;7382357;19;21321;-67
2022/09/30 11:15:01;;;;;;;6.43;2.90;;;;;;;16.47;74.98;100262.09;7380668;19;20610;-63
2022/09/30 11:17:47;;;;;;;3.70;1.45;;;;;;;16.52;73.35;100272.94;7384465;19;20146;-64
2022/09/30 11:20:31;;;;;;;3.03;1.20;;;;;;;16.59;72.50;100268.47;7383593;19;20033;-63
2022/09/30 11:23:16;;;;;;;2.50;1.15;;;;;;;16.66;71.73;100271.09;7385251;19;20014;-64
2022/09/30 11:26:02;;;;;;;3.42;1.00;;;;;;;16.70;71.09;100260.91;7379659;19;20018;-65
2022/09/30 11:28:40;;;;;;;5.43;1.02;;;;;;;16.72;70.87;100256.19;7380621;19;20267;-65
2022/09/30 11:31:36;;;;;;;7.55;2.97;;;;;;;16.76;70.99;100252.91;7377914;19;20006;-64
2022/09/30 11:34:22;;;;;;;2.60;1.30;;;;;;;16.81;70.94;100247.00;7382654;19;20034;-64
2022/09/30 11:37:07;;;;;;;1.88;0.90;;;;;;;16.86;70.28;100242.69;7370272;19;20022;-64
2022/09/30 11:40:00;;;;;;;6.13;1.40;;;;;;;16.87;70.89;100231.00;7381802;19;20449;-64
2022/09/30 11:43:21;;;;;;;1.63;0.68;;;;;;;16.87;70.21;100220.38;7383806;19;20388;-64
2022/09/30 11:46:05;;;;;;;3.20;0.90;;;;;;;16.90;70.13;100212.00;7377945;19;20514;-64
2022/09/30 11:48:45;;;;;;;1.98;1.00;;;;;;;16.93;70.54;100208.09;7380270;19;20010;-64
2022/09/30 11:51:17;;;;;;;3.28;1.10;;;;;;;16.91;69.75;100216.31;7384738;19;20014;-64
2022/09/30 11:54:22;;;;;;;2.58;0.80;;;;;;;16.93;69.31;100208.91;7381743;19;20339;-65
2022/09/30 11:57:00;;;;;;;2.38;1.00;;;;;;;16.96;70.65;100208.53;7384589;19;20082;-64
2022/09/30 11:59:36;;;;;;;2.20;1.02;;;;;;;16.99;73.86;100196.63;7381880;19;20022;-63